Time,TemperatureF,DewpointF,PressureIn,WindDirection,WindDirectionDegrees,WindSpeedMPH,WindSpeedGustMPH,Humidity,HourlyPrecipIn,Conditions,Clouds,dailyrainin,SoftwareType,DateUTC
2013-06-02 00:12:00,61.0,57.0,-100.00,WNW,300,9.0,16.0,89,0.00,,,-99.99,,2013-06-02 05:12:00,
2013-06-02 00:22:00,61.0,57.0,-100.00,WNW,300,9.0,16.0,89,0.00,,,-99.99,,2013-06-02 05:22:00,
2013-06-02 00:32:00,61.0,57.0,-100.00,WNW,300,9.0,16.0,89,0.00,,,-99.99,,2013-06-02 05:32:00,
2013-06-02 00:42:00,61.0,57.0,-100.00,WNW,300,9.0,16.0,89,0.00,,,-99.99,,2013-06-02 05:42:00,
2013-06-02 01:12:00,58.0,55.0,-100.00,WNW,300,12.0,22.0,89,0.00,,,-99.99,,2013-06-02 06:12:00,
2013-06-02 01:21:00,58.0,55.0,-100.00,WNW,300,12.0,22.0,89,0.00,,,-99.99,,2013-06-02 06:21:00,
2013-06-02 01:32:00,58.0,55.0,-100.00,WNW,300,12.0,22.0,89,0.00,,,-99.99,,2013-06-02 06:32:00,
2013-06-02 01:42:00,58.0,55.0,-100.00,WNW,300,12.0,22.0,89,0.00,,,-99.99,,2013-06-02 06:42:00,
2013-06-02 02:11:00,54.0,50.0,-100.00,NNW,340,12.0,26.0,85,0.00,,,-99.99,,2013-06-02 07:11:00,
2013-06-02 02:21:00,54.0,50.0,-100.00,NNW,340,12.0,26.0,85,0.00,,,-99.99,,2013-06-02 07:21:00,
2013-06-02 02:32:00,54.0,50.0,-100.00,NNW,340,12.0,26.0,85,0.00,,,-99.99,,2013-06-02 07:32:00,
2013-06-02 02:42:00,54.0,50.0,-100.00,NNW,340,12.0,26.0,85,0.00,,,-99.99,,2013-06-02 07:42:00,
2013-06-02 03:12:00,52.0,46.0,-100.00,NW,310,12.0,24.0,79,0.00,,,-99.99,,2013-06-02 08:12:00,
2013-06-02 03:21:00,52.0,46.0,-100.00,NW,310,12.0,24.0,79,0.00,,,-99.99,,2013-06-02 08:21:00,
2013-06-02 03:32:00,52.0,46.0,-100.00,NW,310,12.0,24.0,79,0.00,,,-99.99,,2013-06-02 08:32:00,
2013-06-02 03:41:00,52.0,46.0,-100.00,NW,310,12.0,24.0,79,0.00,,,-99.99,,2013-06-02 08:41:00,
2013-06-02 04:11:00,50.0,43.0,-100.00,NW,315,15.0,26.0,78,0.00,,,-99.99,,2013-06-02 09:11:00,
2013-06-02 04:21:00,50.0,43.0,-100.00,NW,315,15.0,26.0,78,0.00,,,-99.99,,2013-06-02 09:21:00,
2013-06-02 04:33:00,50.0,43.0,-100.00,NW,315,15.0,26.0,78,0.00,,,-99.99,,2013-06-02 09:33:00,
2013-06-02 04:42:00,50.0,43.0,-100.00,NW,315,15.0,26.0,78,0.00,,,-99.99,,2013-06-02 09:42:00,
2013-06-02 05:12:00,48.0,41.0,-100.00,NNW,335,12.0,23.0,76,0.00,,,-99.99,,2013-06-02 10:12:00,
2013-06-02 05:22:00,48.0,41.0,-100.00,NNW,335,12.0,23.0,76,0.00,,,-99.99,,2013-06-02 10:22:00,
2013-06-02 05:32:00,48.0,41.0,-100.00,NNW,335,12.0,23.0,76,0.00,,,-99.99,,2013-06-02 10:32:00,
2013-06-02 05:42:00,48.0,41.0,-100.00,NNW,335,12.0,23.0,76,0.00,,,-99.99,,2013-06-02 10:42:00,
2013-06-02 06:12:00,47.0,39.0,-100.00,NW,320,9.0,17.0,74,0.00,,,-99.99,,2013-06-02 11:12:00,
2013-06-02 06:22:00,47.0,39.0,-100.00,NW,320,9.0,17.0,74,0.00,,,-99.99,,2013-06-02 11:22:00,
2013-06-02 06:32:00,47.0,39.0,-100.00,NW,320,9.0,17.0,74,0.00,,,-99.99,,2013-06-02 11:32:00,
2013-06-02 06:42:00,47.0,39.0,-100.00,NW,320,9.0,17.0,74,0.00,,,-99.99,,2013-06-02 11:42:00,
2013-06-02 07:11:00,46.0,37.0,-100.00,NW,320,11.0,24.0,70,0.00,,,-99.99,,2013-06-02 12:11:00,
2013-06-02 07:21:00,46.0,37.0,-100.00,NW,320,11.0,24.0,70,0.00,,,-99.99,,2013-06-02 12:21:00,
2013-06-02 07:32:00,46.0,37.0,-100.00,NW,320,11.0,24.0,70,0.00,,,-99.99,,2013-06-02 12:32:00,
2013-06-02 07:42:00,46.0,37.0,-100.00,NW,320,11.0,24.0,70,0.00,,,-99.99,,2013-06-02 12:42:00,
2013-06-02 08:12:00,47.0,36.0,-100.00,NW,325,14.0,19.0,67,0.00,,,-99.99,,2013-06-02 13:12:00,
2013-06-02 08:21:00,47.0,36.0,-100.00,NW,325,14.0,19.0,67,0.00,,,-99.99,,2013-06-02 13:21:00,
2013-06-02 08:32:00,47.0,36.0,-100.00,NW,325,14.0,19.0,67,0.00,,,-99.99,,2013-06-02 13:32:00,
2013-06-02 08:42:00,47.0,36.0,-100.00,NW,325,14.0,19.0,67,0.00,,,-99.99,,2013-06-02 13:42:00,
2013-06-02 09:11:00,48.0,36.0,-100.00,NW,325,12.0,17.0,65,0.00,,,-99.99,,2013-06-02 14:11:00,
2013-06-02 09:21:00,48.0,36.0,-100.00,NW,325,12.0,17.0,65,0.00,,,-99.99,,2013-06-02 14:21:00,
2013-06-02 09:32:00,48.0,36.0,-100.00,NW,325,12.0,17.0,65,0.00,,,-99.99,,2013-06-02 14:32:00,
2013-06-02 09:42:00,48.0,36.0,-100.00,NW,325,12.0,17.0,65,0.00,,,-99.99,,2013-06-02 14:42:00,
2013-06-02 10:11:00,51.0,37.0,-100.00,North,0,12.0,21.0,60,0.00,,,-99.99,,2013-06-02 15:11:00,
2013-06-02 10:21:00,51.0,37.0,-100.00,North,0,12.0,21.0,60,0.00,,,-99.99,,2013-06-02 15:21:00,
2013-06-02 10:33:00,51.0,37.0,-100.00,North,0,12.0,21.0,60,0.00,,,-99.99,,2013-06-02 15:33:00,
2013-06-02 10:43:00,51.0,37.0,-100.00,North,0,12.0,21.0,60,0.00,,,-99.99,,2013-06-02 15:43:00,
2013-06-02 11:13:00,53.0,36.0,-100.00,NNW,330,12.0,19.0,54,0.00,,,-99.99,,2013-06-02 16:13:00,
2013-06-02 11:23:00,53.0,36.0,-100.00,NNW,330,12.0,19.0,54,0.00,,,-99.99,,2013-06-02 16:23:00,
2013-06-02 11:33:00,53.0,36.0,-100.00,NNW,330,12.0,19.0,54,0.00,,,-99.99,,2013-06-02 16:33:00,
2013-06-02 11:42:00,53.0,36.0,-100.00,NNW,330,12.0,19.0,54,0.00,,,-99.99,,2013-06-02 16:42:00,
2013-06-02 12:12:00,55.0,36.0,-100.00,NNW,340,12.0,23.0,49,0.00,,,-99.99,,2013-06-02 17:12:00,
2013-06-02 12:23:00,55.0,36.0,-100.00,NNW,340,12.0,23.0,49,0.00,,,-99.99,,2013-06-02 17:23:00,
2013-06-02 12:32:00,55.0,36.0,-100.00,NNW,340,12.0,23.0,49,0.00,,,-99.99,,2013-06-02 17:32:00,
2013-06-02 12:42:00,55.0,36.0,-100.00,NNW,340,12.0,23.0,49,0.00,,,-99.99,,2013-06-02 17:42:00,
2013-06-02 13:11:00,56.0,37.0,-100.00,NW,320,10.0,15.0,48,0.00,,,-99.99,,2013-06-02 18:11:00,
2013-06-02 13:21:00,56.0,37.0,-100.00,NW,320,10.0,15.0,48,0.00,,,-99.99,,2013-06-02 18:21:00,
2013-06-02 13:32:00,56.0,37.0,-100.00,NW,320,10.0,15.0,48,0.00,,,-99.99,,2013-06-02 18:32:00,
2013-06-02 13:42:00,56.0,37.0,-100.00,NW,320,10.0,15.0,48,0.00,,,-99.99,,2013-06-02 18:42:00,
2013-06-02 14:11:00,58.0,38.0,-100.00,NNW,330,9.0,24.0,47,0.00,,,-99.99,,2013-06-02 19:11:00,
2013-06-02 14:21:00,58.0,38.0,-100.00,NNW,330,9.0,24.0,47,0.00,,,-99.99,,2013-06-02 19:21:00,
2013-06-02 14:32:00,58.0,38.0,-100.00,NNW,330,9.0,24.0,47,0.00,,,-99.99,,2013-06-02 19:32:00,
2013-06-02 14:42:00,58.0,38.0,-100.00,NNW,330,9.0,24.0,47,0.00,,,-99.99,,2013-06-02 19:42:00,
2013-06-02 15:11:00,59.0,36.0,-100.00,NNW,340,12.0,17.0,43,0.00,,,-99.99,,2013-06-02 20:11:00,
2013-06-02 15:22:00,59.0,36.0,-100.00,NNW,340,12.0,17.0,43,0.00,,,-99.99,,2013-06-02 20:22:00,
2013-06-02 15:32:00,59.0,36.0,-100.00,NNW,340,12.0,17.0,43,0.00,,,-99.99,,2013-06-02 20:32:00,
2013-06-02 15:42:00,59.0,36.0,-100.00,NNW,340,12.0,17.0,43,0.00,,,-99.99,,2013-06-02 20:42:00,
2013-06-02 16:12:00,62.0,36.0,-100.00,WSW,255,5.0,14.0,38,0.00,,,-99.99,,2013-06-02 21:12:00,
2013-06-02 16:21:00,62.0,36.0,-100.00,WSW,255,5.0,14.0,38,0.00,,,-99.99,,2013-06-02 21:21:00,
2013-06-02 16:33:00,62.0,36.0,-100.00,WSW,255,5.0,14.0,38,0.00,,,-99.99,,2013-06-02 21:33:00,
2013-06-02 16:42:00,62.0,36.0,-100.00,WSW,255,5.0,14.0,38,0.00,,,-99.99,,2013-06-02 21:42:00,
2013-06-02 17:12:00,62.0,34.0,-100.00,North,5,9.0,15.0,36,0.00,,,-99.99,,2013-06-02 22:12:00,
2013-06-02 17:23:00,62.0,34.0,-100.00,North,5,9.0,15.0,36,0.00,,,-99.99,,2013-06-02 22:23:00,
2013-06-02 17:33:00,62.0,34.0,-100.00,North,5,9.0,15.0,36,0.00,,,-99.99,,2013-06-02 22:33:00,
2013-06-02 17:42:00,62.0,34.0,-100.00,North,5,9.0,15.0,36,0.00,,,-99.99,,2013-06-02 22:42:00,
2013-06-02 18:12:00,63.0,34.0,-100.00,NW,310,4.0,11.0,34,0.00,,,-99.99,,2013-06-02 23:12:00,
2013-06-02 18:22:00,63.0,34.0,-100.00,NW,310,4.0,11.0,34,0.00,,,-99.99,,2013-06-02 23:22:00,
2013-06-02 18:32:00,63.0,34.0,-100.00,NW,310,4.0,11.0,34,0.00,,,-99.99,,2013-06-02 23:32:00,
2013-06-02 18:42:00,63.0,34.0,-100.00,NW,310,4.0,11.0,34,0.00,,,-99.99,,2013-06-02 23:42:00,
2013-06-02 19:12:00,62.0,34.0,-100.00,NW,315,4.0,11.0,35,0.00,,,-99.99,,2013-06-03 00:12:00,
2013-06-02 19:22:00,62.0,34.0,-100.00,NW,315,4.0,11.0,35,0.00,,,-99.99,,2013-06-03 00:22:00,
2013-06-02 19:32:00,62.0,34.0,-100.00,NW,315,4.0,11.0,35,0.00,,,-99.99,,2013-06-03 00:32:00,
2013-06-02 19:42:00,62.0,34.0,-100.00,NW,315,4.0,11.0,35,0.00,,,-99.99,,2013-06-03 00:42:00,
2013-06-02 20:11:00,59.0,34.0,-100.00,NW,320,5.0,9.0,40,0.00,,,-99.99,,2013-06-03 01:11:00,
2013-06-02 20:21:00,59.0,34.0,-100.00,NW,320,5.0,9.0,40,0.00,,,-99.99,,2013-06-03 01:21:00,
2013-06-02 20:32:00,59.0,34.0,-100.00,NW,320,5.0,9.0,40,0.00,,,-99.99,,2013-06-03 01:32:00,
2013-06-02 20:42:00,59.0,34.0,-100.00,NW,320,5.0,9.0,40,0.00,,,-99.99,,2013-06-03 01:42:00,
2013-06-02 21:12:00,55.0,35.0,-100.00,NW,320,5.0,6.0,48,0.00,,,-99.99,,2013-06-03 02:12:00,
2013-06-02 21:22:00,55.0,35.0,-100.00,NW,320,5.0,6.0,48,0.00,,,-99.99,,2013-06-03 02:22:00,
2013-06-02 21:32:00,55.0,35.0,-100.00,NW,320,5.0,6.0,48,0.00,,,-99.99,,2013-06-03 02:32:00,
2013-06-02 21:42:00,55.0,35.0,-100.00,NW,320,5.0,6.0,48,0.00,,,-99.99,,2013-06-03 02:42:00,
2013-06-02 22:12:00,51.0,40.0,-100.00,North,0,2.0,4.0,65,0.00,,,-99.99,,2013-06-03 03:12:00,
2013-06-02 22:22:00,51.0,40.0,-100.00,North,0,2.0,4.0,65,0.00,,,-99.99,,2013-06-03 03:22:00,
2013-06-02 22:33:00,51.0,40.0,-100.00,North,0,2.0,4.0,65,0.00,,,-99.99,,2013-06-03 03:33:00,
2013-06-02 22:43:00,51.0,40.0,-100.00,North,0,2.0,4.0,65,0.00,,,-99.99,,2013-06-03 03:43:00,
2013-06-02 23:13:00,49.0,41.0,-100.00,NNW,330,2.0,4.0,72,0.00,,,-99.99,,2013-06-03 04:13:00,
2013-06-02 23:23:00,49.0,41.0,-100.00,NNW,330,2.0,4.0,72,0.00,,,-99.99,,2013-06-03 04:23:00,
2013-06-02 23:33:00,49.0,41.0,-100.00,NNW,330,2.0,4.0,72,0.00,,,-99.99,,2013-06-03 04:33:00,
2013-06-02 23:42:00,49.0,41.0,-100.00,NNW,330,2.0,4.0,72,0.00,,,-99.99,,2013-06-03 04:42:00,